createdAt,value
2018-03-23T00:02:38.105Z,6.09
2018-03-23T00:08:28.978Z,6.82
2018-03-23T00:14:19.859Z,7.26
2018-03-23T00:20:10.632Z,7.49
2018-03-23T00:26:01.482Z,7.05
2018-03-23T00:31:52.364Z,7.04
2018-03-23T00:37:43.305Z,6.89
2018-03-23T00:43:34.036Z,5.84
2018-03-23T00:49:24.883Z,6.88
2018-03-23T00:55:15.738Z,6.25
2018-03-23T01:01:06.581Z,6.79
2018-03-23T01:06:57.451Z,7.48
2018-03-23T01:12:48.293Z,6.95
2018-03-23T01:18:39.167Z,6.88
2018-03-23T01:24:29.998Z,7.17
2018-03-23T01:30:20.829Z,7.24
2018-03-23T01:36:11.672Z,7.03
2018-03-23T01:42:02.535Z,6.4
2018-03-23T01:47:53.465Z,6.2
2018-03-23T01:53:44.208Z,6.72
2018-03-23T01:59:35.087Z,6.54
2018-03-23T02:05:25.966Z,6.68
2018-03-23T02:11:16.807Z,6.93
2018-03-23T02:17:07.647Z,6.81
2018-03-23T02:22:58.457Z,7.25
2018-03-23T02:28:49.330Z,6.56
2018-03-23T02:34:40.175Z,6.69
2018-03-23T02:40:31.080Z,7.17
2018-03-23T02:46:21.861Z,6.59
2018-03-23T02:52:12.724Z,5.85
2018-03-23T02:58:03.580Z,6.7
2018-03-23T03:03:54.398Z,6.57
2018-03-23T03:09:45.273Z,6.83
2018-03-23T03:15:36.078Z,6.16
2018-03-23T03:21:26.971Z,5.93
2018-03-23T03:27:17.809Z,6.03
2018-03-23T03:33:08.675Z,5.16
2018-03-23T03:38:59.506Z,4.81
2018-03-23T03:44:50.332Z,5.4
2018-03-23T03:50:41.172Z,5.29
2018-03-23T03:56:32.015Z,4.54
2018-03-23T04:02:22.815Z,5.01
2018-03-23T04:08:13.698Z,4.9
2018-03-23T04:14:04.529Z,4.61
2018-03-23T04:19:55.389Z,4.52
2018-03-23T04:25:46.220Z,4.28
2018-03-23T04:31:37.056Z,3.58
2018-03-23T04:37:27.881Z,4.25
2018-03-23T04:43:18.757Z,4.36
2018-03-23T04:49:09.594Z,4.58
2018-03-23T04:55:00.443Z,3.92
2018-03-23T05:00:51.278Z,4.27
2018-03-23T05:06:42.188Z,4.57
2018-03-23T05:12:32.959Z,4.05
2018-03-23T05:18:23.881Z,4.5
2018-03-23T05:24:14.707Z,4.82
2018-03-23T05:30:05.562Z,6.19
2018-03-23T05:35:56.360Z,5.23
2018-03-23T05:41:47.214Z,5.69
2018-03-23T05:47:38.042Z,5.12
2018-03-23T05:53:28.891Z,6.14
2018-03-23T05:59:19.761Z,5.54
2018-03-23T06:05:10.576Z,6.35
2018-03-23T06:11:01.419Z,6.91
2018-03-23T06:16:52.277Z,7.83
2018-03-23T06:22:43.195Z,7.19
2018-03-23T06:28:33.951Z,7.38
2018-03-23T06:34:24.776Z,7.04
2018-03-23T06:40:15.608Z,7.92
2018-03-23T06:46:06.454Z,9.41
2018-03-23T06:51:57.309Z,9.25
2018-03-23T06:57:48.235Z,9.66
2018-03-23T07:03:38.996Z,10.44
2018-03-23T07:09:30.029Z,13.81
2018-03-23T07:15:20.839Z,10.94
2018-03-23T07:21:11.731Z,11.39
2018-03-23T07:27:02.558Z,10.28
2018-03-23T07:32:53.397Z,9.46
2018-03-23T07:38:44.217Z,9.26
2018-03-23T07:44:35.096Z,8.4
2018-03-23T07:50:25.895Z,7.25
2018-03-23T07:56:16.725Z,6.95
2018-03-23T08:02:07.595Z,5.01
2018-03-23T08:07:58.440Z,5.21
2018-03-23T08:13:49.272Z,4.31
2018-03-23T08:19:40.193Z,3.92
2018-03-23T08:25:30.979Z,6.04
2018-03-23T08:31:21.872Z,8.13
2018-03-23T08:37:12.798Z,12.6
2018-03-23T08:43:03.561Z,14.93
2018-03-23T08:48:54.415Z,15.1
2018-03-23T08:54:45.276Z,17.21
2018-03-23T09:00:36.116Z,15.87
2018-03-23T09:06:27.018Z,17.77
2018-03-23T09:12:17.907Z,21.3
2018-03-23T09:18:08.682Z,16.19
2018-03-23T09:23:59.619Z,21.28
2018-03-23T09:29:50.459Z,25.12
2018-03-23T09:35:41.409Z,22.93
2018-03-23T09:41:32.277Z,32.7
2018-03-23T09:47:23.748Z,34.98
2018-03-23T09:53:13.956Z,33.06
2018-03-23T09:59:04.770Z,37.56
2018-03-23T10:04:55.620Z,32.53
2018-03-23T10:10:46.502Z,27.8
2018-03-23T10:16:37.316Z,23.79
2018-03-23T10:22:28.218Z,16.52
2018-03-23T10:28:19.002Z,26.09
2018-03-23T10:34:09.936Z,29.79
2018-03-23T10:40:00.738Z,28.51
2018-03-23T10:45:51.613Z,24.42
2018-03-23T10:51:42.508Z,19.38
2018-03-23T10:57:33.341Z,15.56
2018-03-23T11:03:24.233Z,16.6
2018-03-23T11:09:15.118Z,17.18
2018-03-23T11:15:05.963Z,14.88
2018-03-23T11:20:56.824Z,14.54
2018-03-23T11:26:47.764Z,16.16
2018-03-23T11:32:38.657Z,21.08
2018-03-23T11:38:29.551Z,21.76
2018-03-23T11:44:20.382Z,21.66
2018-03-23T11:50:11.252Z,21.68
2018-03-23T11:56:02.099Z,24.16
2018-03-23T12:01:53.016Z,23.86
2018-03-23T12:07:43.867Z,20.12
2018-03-23T12:13:34.765Z,15.94
2018-03-23T12:19:25.648Z,13.21
2018-03-23T12:25:16.582Z,12.02
2018-03-23T12:31:07.431Z,9.98
2018-03-23T12:36:58.347Z,11.42
2018-03-23T12:42:49.244Z,11.91
2018-03-23T12:48:40.134Z,13.98
2018-03-23T12:54:31.046Z,13.19
2018-03-23T13:00:21.938Z,13.19
2018-03-23T13:06:12.815Z,13.54
2018-03-23T13:12:03.749Z,16.41
2018-03-23T13:17:54.662Z,13.74
2018-03-23T13:23:45.608Z,10.44
2018-03-23T13:29:36.438Z,14.59
2018-03-23T13:35:27.333Z,14.79
2018-03-23T13:41:18.259Z,13.77
2018-03-23T13:47:09.189Z,12.34
2018-03-23T13:53:00.163Z,9.68
2018-03-23T13:58:51.195Z,9.56
2018-03-23T14:04:41.884Z,6.81
2018-03-23T14:10:32.817Z,6.66
2018-03-23T14:16:23.768Z,7.76
2018-03-23T14:22:14.685Z,10.44
2018-03-23T14:28:05.602Z,13.81
2018-03-23T14:33:56.506Z,10.99
2018-03-23T14:39:47.396Z,16.5
2018-03-23T14:45:38.311Z,23.34
2018-03-23T14:51:29.184Z,37.13
2018-03-23T14:57:20.134Z,38.51
2018-03-23T15:03:10.997Z,42.16
2018-03-23T15:09:01.943Z,35.25
2018-03-23T15:14:52.826Z,31.71
2018-03-23T15:20:43.737Z,28.91
2018-03-23T15:26:34.634Z,31.01
2018-03-23T15:32:25.486Z,25.78
2018-03-23T15:38:16.391Z,20.6
2018-03-23T15:44:07.279Z,17.31
2018-03-23T15:49:58.178Z,14.42
2018-03-23T15:55:49.118Z,13.25
2018-03-23T16:01:39.958Z,11.27
2018-03-23T16:07:30.912Z,9.46
2018-03-23T16:13:21.856Z,8.36
2018-03-23T16:19:12.663Z,7.06
2018-03-23T16:25:03.616Z,6.79
2018-03-23T16:30:54.429Z,7.82
2018-03-23T16:36:45.348Z,8.06
2018-03-23T16:42:36.212Z,8.8
2018-03-23T16:48:27.124Z,9.74
2018-03-23T16:54:17.979Z,7.2
2018-03-23T17:00:08.852Z,8.85
2018-03-23T17:05:59.720Z,7.29
2018-03-23T17:17:41.489Z,6.32
2018-03-23T17:23:32.365Z,4.96
2018-03-23T17:29:23.226Z,5
2018-03-23T17:35:14.169Z,4.79
2018-03-23T17:41:04.983Z,4.25
2018-03-23T17:46:55.872Z,4.28
2018-03-23T17:52:46.800Z,4.92
2018-03-23T17:58:37.605Z,4.63
2018-03-23T18:04:28.449Z,4.35
2018-03-23T18:10:19.338Z,4.52
2018-03-23T18:16:10.238Z,4.2
2018-03-23T18:22:01.115Z,4.01
2018-03-23T18:27:51.959Z,4.58
2018-03-23T18:33:42.852Z,4.64
2018-03-23T18:39:33.755Z,4.5
2018-03-23T18:45:24.584Z,7.21
2018-03-23T18:51:15.473Z,6.35
2018-03-23T18:57:06.300Z,7.69
2018-03-23T19:02:57.323Z,8.2
2018-03-23T19:08:48.073Z,8.86
2018-03-23T19:14:38.908Z,8.27
2018-03-23T19:20:29.767Z,9.35
2018-03-23T19:26:20.678Z,7.96
2018-03-23T19:32:11.546Z,7.25
2018-03-23T19:38:02.387Z,5.8
2018-03-23T19:43:53.262Z,6.12
2018-03-23T19:49:44.119Z,5.21
2018-03-23T19:55:35.026Z,5.11
2018-03-23T20:01:25.834Z,5.75
2018-03-23T20:07:16.712Z,6.59
2018-03-23T20:13:07.557Z,6.36
2018-03-23T20:18:58.420Z,5.58
2018-03-23T20:24:49.341Z,6.72
2018-03-23T20:30:40.176Z,5.45
2018-03-23T20:36:31.043Z,5.47
2018-03-23T20:42:21.846Z,6.04
2018-03-23T20:48:12.777Z,6.07
2018-03-23T20:54:03.604Z,5.41
2018-03-23T20:59:54.468Z,5.17
2018-03-23T21:05:45.293Z,5.05
2018-03-23T21:11:36.161Z,5.79
2018-03-23T21:17:26.997Z,6.34
2018-03-23T21:23:17.848Z,6.02
2018-03-23T21:29:08.761Z,6.14
2018-03-23T21:34:59.614Z,5.89
2018-03-23T21:40:50.446Z,6.97
2018-03-23T21:46:41.339Z,8.35
2018-03-23T21:52:32.183Z,7.44
2018-03-23T21:58:23.081Z,7.28
2018-03-23T22:04:13.920Z,8.5
2018-03-23T22:10:04.754Z,9.83
2018-03-23T22:15:55.619Z,10.09
2018-03-23T22:21:46.458Z,9.63
2018-03-23T22:27:37.344Z,10.58
2018-03-23T22:33:28.183Z,10.68
2018-03-23T22:39:19.079Z,8.83
2018-03-23T22:45:09.903Z,10.23
2018-03-23T22:51:00.757Z,11.01
2018-03-23T22:56:51.570Z,9.73
2018-03-23T23:02:42.471Z,10.75
2018-03-23T23:08:33.326Z,10.73
2018-03-23T23:14:24.215Z,11.62
2018-03-23T23:20:15.005Z,10.34
2018-03-23T23:26:05.913Z,10.72
2018-03-23T23:31:56.718Z,10.39
2018-03-23T23:37:47.600Z,10.77
2018-03-23T23:43:38.422Z,10.38
2018-03-23T23:49:29.297Z,10.21
2018-03-23T23:55:20.175Z,10.13
